createdAt,value
2018-03-02T00:00:10.940Z,92.70
2018-03-02T00:02:38.541Z,92.70
2018-03-02T00:05:06.932Z,93.00
2018-03-02T00:07:35.302Z,92.80
2018-03-02T00:10:03.895Z,92.80
2018-03-02T00:12:31.518Z,92.80
2018-03-02T00:14:59.117Z,92.80
2018-03-02T00:17:26.733Z,93.00
2018-03-02T00:19:54.315Z,93.00
2018-03-02T00:22:22.696Z,93.10
2018-03-02T00:24:51.079Z,92.90
2018-03-02T00:27:19.471Z,93.00
2018-03-02T00:29:47.073Z,93.00
2018-03-02T00:32:14.695Z,92.90
2018-03-02T00:34:42.314Z,93.10
2018-03-02T00:37:09.905Z,93.10
2018-03-02T00:39:37.537Z,93.20
2018-03-02T00:42:05.131Z,93.00
2018-03-02T00:44:32.766Z,93.30
2018-03-02T00:47:01.135Z,93.20
2018-03-02T00:49:29.498Z,93.40
2018-03-02T00:51:57.114Z,93.10
2018-03-02T00:54:24.726Z,93.20
2018-03-02T00:56:52.357Z,93.30
2018-03-02T00:59:19.968Z,93.20
2018-03-02T01:01:48.395Z,93.70
2018-03-02T01:04:16.004Z,93.40
2018-03-02T01:06:44.364Z,93.30
2018-03-02T01:09:12.779Z,93.30
2018-03-02T01:11:40.407Z,93.30
2018-03-02T01:14:08.035Z,93.20
2018-03-02T01:16:35.652Z,93.40
2018-03-02T01:19:03.359Z,93.50
2018-03-02T01:21:30.962Z,93.50
2018-03-02T01:23:59.334Z,93.60
2018-03-02T01:26:26.948Z,93.50
2018-03-02T01:28:54.551Z,93.50
2018-03-02T01:31:22.214Z,93.50
2018-03-02T01:33:50.583Z,93.70
2018-03-02T01:36:18.180Z,93.70
2018-03-02T01:38:45.816Z,93.60
2018-03-02T01:41:13.454Z,93.60
2018-03-02T01:43:41.077Z,93.70
2018-03-02T01:46:08.693Z,94.00
2018-03-02T01:48:36.288Z,93.70
2018-03-02T01:51:03.910Z,93.70
2018-03-02T01:53:31.535Z,93.90
2018-03-02T01:55:59.160Z,93.80
2018-03-02T01:58:26.770Z,93.70
2018-03-02T02:00:54.403Z,93.90
2018-03-02T02:03:22.000Z,94.00
2018-03-02T02:05:49.590Z,93.90
2018-03-02T02:08:17.990Z,93.90
2018-03-02T02:10:45.589Z,93.90
2018-03-02T02:13:13.203Z,94.10
2018-03-02T02:15:40.789Z,93.90
2018-03-02T02:18:08.426Z,94.00
2018-03-02T02:20:36.061Z,94.00
2018-03-02T02:23:04.434Z,93.90
2018-03-02T02:25:32.831Z,94.00
2018-03-02T02:28:00.439Z,94.00
2018-03-02T02:30:28.061Z,94.20
2018-03-02T02:32:55.673Z,94.10
2018-03-02T02:35:23.322Z,93.90
2018-03-02T02:37:50.938Z,94.10
2018-03-02T02:40:18.584Z,94.10
2018-03-02T02:42:46.983Z,94.20
2018-03-02T02:45:14.603Z,94.20
2018-03-02T02:47:42.244Z,94.20
2018-03-02T02:50:09.842Z,94.60
2018-03-02T02:52:38.223Z,94.20
2018-03-02T02:55:06.620Z,94.20
2018-03-02T02:57:34.258Z,94.20
2018-03-02T03:00:01.874Z,94.40
2018-03-02T03:02:29.518Z,94.30
2018-03-02T03:04:57.121Z,94.30
2018-03-02T03:07:24.727Z,94.70
2018-03-02T03:09:52.366Z,94.50
2018-03-02T03:12:20.728Z,94.40
2018-03-02T03:14:49.128Z,94.40
2018-03-02T03:17:16.733Z,94.70
2018-03-02T03:19:44.358Z,94.40
2018-03-02T03:22:11.966Z,94.50
2018-03-02T03:24:39.603Z,94.60
2018-03-02T03:27:07.200Z,94.60
2018-03-02T03:29:34.840Z,94.50
2018-03-02T03:32:02.434Z,94.50
2018-03-02T03:34:30.811Z,94.70
2018-03-02T03:36:59.210Z,94.70
2018-03-02T03:39:26.813Z,94.60
2018-03-02T03:41:54.465Z,94.80
2018-03-02T03:44:22.069Z,94.90
2018-03-02T03:46:50.466Z,94.80
2018-03-02T03:49:18.068Z,94.80
2018-03-02T03:51:45.760Z,95.00
2018-03-02T03:54:14.152Z,95.00
2018-03-02T03:56:42.557Z,95.00
2018-03-02T03:59:10.175Z,95.00
2018-03-02T04:01:37.820Z,95.10
2018-03-02T04:04:05.424Z,95.30
2018-03-02T04:06:33.042Z,95.30
2018-03-02T04:09:00.637Z,95.30
2018-03-02T04:11:28.283Z,95.30
2018-03-02T04:13:56.653Z,95.30
2018-03-02T04:16:24.266Z,95.30
2018-03-02T04:18:51.858Z,95.40
2018-03-02T04:21:19.498Z,95.40
2018-03-02T04:23:47.109Z,95.50
2018-03-02T04:26:15.526Z,95.50
2018-03-02T04:28:43.129Z,95.50
2018-03-02T04:31:11.656Z,95.50
2018-03-02T04:33:39.285Z,95.50
2018-03-02T04:36:07.646Z,95.50
2018-03-02T04:38:35.278Z,95.40
2018-03-02T04:41:02.903Z,95.60
2018-03-02T04:43:30.534Z,95.60
2018-03-02T04:45:58.136Z,95.60
2018-03-02T04:48:25.745Z,95.90
2018-03-02T04:50:53.359Z,95.70
2018-03-02T04:53:20.967Z,95.70
2018-03-02T04:55:48.588Z,95.60
2018-03-02T04:58:16.173Z,95.70
2018-03-02T05:00:43.818Z,95.60
2018-03-02T05:03:11.427Z,95.70
2018-03-02T05:05:39.797Z,95.80
2018-03-02T05:08:07.422Z,95.80
2018-03-02T05:10:35.029Z,95.80
2018-03-02T05:13:03.424Z,95.80
2018-03-02T05:15:31.046Z,95.80
2018-03-02T05:17:58.689Z,95.80
2018-03-02T05:20:26.291Z,95.80
2018-03-02T05:22:54.664Z,95.80
2018-03-02T05:25:23.173Z,95.90
2018-03-02T05:27:51.481Z,95.80
2018-03-02T05:30:19.119Z,95.80
2018-03-02T05:32:46.728Z,95.80
2018-03-02T05:35:14.358Z,95.90
2018-03-02T05:37:41.955Z,96.00
2018-03-02T05:40:10.320Z,95.80
2018-03-02T05:42:37.953Z,95.80
2018-03-02T05:45:05.555Z,95.90
2018-03-02T05:47:33.940Z,96.00
2018-03-02T05:50:02.464Z,96.00
2018-03-02T05:52:30.111Z,95.90
2018-03-02T05:54:57.704Z,96.30
2018-03-02T05:57:25.329Z,95.90
2018-03-02T05:59:52.932Z,95.90
2018-03-02T06:02:20.571Z,95.80
2018-03-02T06:04:48.162Z,95.80
2018-03-02T06:07:15.804Z,96.10
2018-03-02T06:09:43.443Z,96.20
2018-03-02T06:12:11.054Z,96.20
2018-03-02T06:14:38.666Z,96.10
2018-03-02T06:17:06.258Z,96.30
2018-03-02T06:19:33.884Z,96.30
2018-03-02T06:22:01.483Z,96.20
2018-03-02T06:24:29.130Z,96.20
2018-03-02T06:26:58.238Z,96.20
2018-03-02T06:29:25.842Z,96.10
2018-03-02T06:31:53.484Z,96.10
2018-03-02T06:34:21.843Z,96.10
2018-03-02T06:36:49.460Z,96.10
2018-03-02T06:39:17.073Z,96.20
2018-03-02T06:41:45.432Z,96.10
2018-03-02T06:44:13.067Z,96.10
2018-03-02T06:46:40.675Z,96.10
2018-03-02T06:49:09.092Z,96.10
2018-03-02T06:51:36.696Z,96.10
2018-03-02T06:54:04.306Z,96.00
2018-03-02T06:56:31.947Z,95.90
2018-03-02T06:58:59.575Z,95.90
2018-03-02T07:01:27.210Z,95.80
2018-03-02T07:03:54.798Z,95.70
2018-03-02T07:06:22.396Z,95.60
2018-03-02T07:08:50.020Z,95.50
2018-03-02T07:11:17.619Z,95.30
2018-03-02T07:13:45.327Z,95.30
2018-03-02T07:16:12.948Z,95.20
2018-03-02T07:18:40.600Z,95.20
2018-03-02T07:21:08.232Z,95.10
2018-03-02T07:23:36.607Z,94.60
2018-03-02T07:26:05.007Z,94.60
2018-03-02T07:28:32.642Z,94.60
2018-03-02T07:31:00.307Z,94.30
2018-03-02T07:33:27.916Z,94.50
2018-03-02T07:35:55.549Z,93.90
2018-03-02T07:38:23.955Z,93.90
2018-03-02T07:40:51.660Z,93.90
2018-03-02T07:43:19.346Z,93.40
2018-03-02T07:45:47.719Z,93.30
2018-03-02T07:48:16.148Z,93.00
2018-03-02T07:50:43.769Z,93.00
2018-03-02T07:53:12.212Z,92.80
2018-03-02T07:55:39.889Z,92.80
2018-03-02T07:58:07.524Z,92.60
2018-03-02T08:00:35.156Z,92.40
2018-03-02T08:03:02.751Z,92.20
2018-03-02T08:05:30.372Z,92.20
2018-03-02T08:07:57.964Z,92.20
2018-03-02T08:10:25.608Z,92.50
2018-03-02T08:12:53.187Z,91.60
2018-03-02T08:15:20.772Z,91.50
2018-03-02T08:17:48.398Z,91.70
2018-03-02T08:20:15.988Z,91.60
2018-03-02T08:22:43.592Z,91.30
2018-03-02T08:25:11.190Z,91.00
2018-03-02T08:27:38.832Z,90.60
2018-03-02T08:30:06.430Z,90.50
2018-03-02T08:32:34.021Z,90.20
2018-03-02T08:35:01.636Z,91.00
2018-03-02T08:37:29.223Z,90.30
2018-03-02T08:39:57.613Z,90.30
2018-03-02T08:42:25.206Z,90.20
2018-03-02T08:44:52.888Z,89.60
2018-03-02T08:47:20.500Z,89.70
2018-03-02T08:49:48.085Z,87.60
2018-03-02T08:52:15.702Z,88.40
2018-03-02T08:54:44.089Z,86.60
2018-03-02T08:57:12.503Z,85.80
2018-03-02T08:59:40.128Z,85.60
2018-03-02T09:02:07.752Z,86.00
2018-03-02T09:04:35.359Z,85.50
2018-03-02T09:07:02.958Z,86.10
2018-03-02T09:09:31.364Z,82.50
2018-03-02T09:11:58.974Z,82.50
2018-03-02T09:14:26.589Z,84.10
2018-03-02T09:16:54.172Z,83.30
2018-03-02T09:19:22.598Z,82.40
2018-03-02T09:21:50.210Z,82.40
2018-03-02T09:24:17.799Z,82.00
2018-03-02T09:26:45.411Z,81.40
2018-03-02T09:29:13.765Z,80.80
2018-03-02T09:31:41.375Z,80.60
2018-03-02T09:34:08.979Z,79.30
2018-03-02T09:36:37.360Z,78.00
2018-03-02T09:39:04.940Z,78.30
2018-03-02T09:41:32.584Z,77.40
2018-03-02T09:44:00.173Z,77.40
2018-03-02T09:46:28.520Z,76.30
2018-03-02T09:48:56.134Z,76.10
2018-03-02T09:51:23.717Z,76.20
2018-03-02T09:53:51.320Z,75.40
2018-03-02T09:56:18.915Z,75.50
2018-03-02T09:58:46.527Z,75.00
2018-03-02T10:01:14.104Z,74.60
2018-03-02T10:03:42.482Z,73.10
2018-03-02T10:06:10.832Z,73.40
2018-03-02T10:08:38.453Z,73.20
2018-03-02T10:11:06.233Z,73.00
2018-03-02T10:13:33.817Z,72.50
2018-03-02T10:16:01.462Z,71.70
2018-03-02T10:18:29.064Z,70.50
2018-03-02T10:20:57.446Z,71.80
2018-03-02T10:23:25.806Z,70.90
2018-03-02T10:25:53.462Z,70.80
2018-03-02T10:28:21.062Z,69.70
2018-03-02T10:30:48.665Z,69.20
2018-03-02T10:33:16.280Z,68.20
2018-03-02T10:35:43.885Z,68.30
2018-03-02T10:38:11.565Z,67.80
2018-03-02T10:40:39.148Z,66.80
2018-03-02T10:43:07.677Z,67.90
2018-03-02T10:45:35.255Z,67.80
2018-03-02T10:48:03.060Z,66.20
2018-03-02T10:50:31.449Z,66.80
2018-03-02T10:52:59.030Z,66.80
2018-03-02T10:55:26.640Z,66.60
2018-03-02T10:57:54.235Z,65.20
2018-03-02T11:00:27.548Z,63.40
2018-03-02T11:02:57.138Z,62.10
2018-03-02T11:08:24.446Z,62.60
2018-03-02T11:10:54.238Z,59.60
2018-03-02T11:13:22.739Z,59.60
2018-03-02T11:15:52.098Z,61.50
2018-03-02T11:18:20.449Z,58.80
2018-03-02T11:20:49.938Z,61.10
2018-03-02T11:23:20.119Z,61.20
2018-03-02T11:25:48.810Z,60.30
2018-03-02T11:28:17.419Z,60.50
2018-03-02T11:30:46.235Z,59.30
2018-03-02T11:33:18.108Z,58.30
2018-03-02T11:35:47.453Z,59.00
2018-03-02T11:38:18.031Z,58.00
2018-03-02T11:40:46.751Z,56.00
2018-03-02T11:43:19.048Z,57.40
2018-03-02T11:45:48.044Z,57.10
2018-03-02T11:48:20.734Z,57.30
2018-03-02T11:50:50.225Z,56.70
2018-03-02T11:53:20.098Z,56.60
2018-03-02T11:55:49.432Z,58.80
2018-03-02T11:58:19.492Z,55.50
2018-03-02T12:00:47.712Z,55.50
2018-03-02T12:03:23.500Z,57.50
2018-03-02T12:05:52.893Z,54.90
2018-03-02T12:08:28.428Z,55.00
2018-03-02T12:10:58.213Z,53.50
2018-03-02T12:13:32.172Z,53.50
2018-03-02T12:16:00.839Z,54.60
2018-03-02T12:18:36.212Z,53.80
2018-03-02T12:21:05.820Z,54.90
2018-03-02T12:23:36.515Z,54.50
2018-03-02T12:26:05.504Z,53.10
2018-03-02T12:28:35.316Z,52.40
2018-03-02T12:31:05.322Z,53.00
2018-03-02T12:33:35.373Z,53.00
2018-03-02T12:36:06.685Z,53.40
2018-03-02T12:38:40.042Z,53.20
2018-03-02T12:41:08.868Z,53.00
2018-03-02T12:43:38.055Z,52.30
2018-03-02T12:46:07.605Z,52.90
2018-03-02T12:48:37.551Z,52.30
2018-03-02T12:51:07.108Z,50.70
2018-03-02T12:53:39.529Z,50.70
2018-03-02T12:56:08.825Z,50.70
2018-03-02T12:58:39.186Z,52.30
2018-03-02T13:01:11.791Z,52.30
2018-03-02T13:03:43.393Z,50.50
2018-03-02T13:06:15.608Z,49.40
2018-03-02T13:08:47.509Z,49.60
2018-03-02T13:11:18.060Z,49.30
2018-03-02T13:13:53.681Z,49.30
2018-03-02T13:16:23.710Z,48.30
2018-03-02T13:18:58.769Z,48.30
2018-03-02T13:21:29.228Z,49.90
2018-03-02T13:24:01.308Z,49.00
2018-03-02T13:26:49.556Z,49.00
2018-03-02T13:29:19.493Z,48.80
2018-03-02T13:31:52.302Z,49.20
2018-03-02T13:34:32.813Z,49.50
2018-03-02T13:37:02.237Z,48.70
2018-03-02T13:39:43.988Z,50.50
2018-03-02T13:42:14.225Z,47.60
2018-03-02T13:44:44.648Z,47.10
2018-03-02T13:47:14.495Z,49.40
2018-03-02T13:49:57.268Z,49.20
2018-03-02T13:52:27.637Z,47.30
2018-03-02T13:55:02.697Z,46.80
2018-03-02T13:57:44.580Z,48.50
2018-03-02T14:00:14.057Z,48.60
2018-03-02T14:02:58.779Z,47.80
2018-03-02T14:05:28.296Z,48.10
2018-03-02T14:08:04.568Z,48.60
2018-03-02T14:10:35.635Z,48.50
2018-03-02T14:13:06.363Z,47.70
2018-03-02T14:15:35.582Z,47.30
2018-03-02T14:18:06.198Z,49.10
2018-03-02T14:20:34.899Z,47.50
2018-03-02T14:23:08.514Z,47.20
2018-03-02T14:25:36.851Z,48.20
2018-03-02T14:28:05.302Z,49.20
2018-03-02T14:30:33.967Z,46.00
2018-03-02T14:33:09.201Z,46.40
2018-03-02T14:35:38.076Z,48.20
2018-03-02T14:38:10.735Z,48.00
2018-03-02T14:40:40.504Z,48.20
2018-03-02T14:43:15.593Z,46.40
2018-03-02T14:45:45.466Z,49.40
2018-03-02T14:48:16.122Z,49.20
2018-03-02T14:50:45.254Z,49.20
2018-03-02T14:53:16.040Z,47.50
2018-03-02T14:55:44.771Z,49.30
2018-03-02T14:58:14.095Z,49.00
2018-03-02T15:00:43.690Z,50.30
2018-03-02T15:03:14.003Z,49.90
2018-03-02T15:05:45.038Z,49.90
2018-03-02T15:08:13.833Z,49.80
2018-03-02T15:10:45.620Z,49.90
2018-03-02T15:13:21.874Z,49.60
2018-03-02T15:15:51.681Z,48.60
2018-03-02T15:18:21.538Z,51.20
2018-03-02T15:20:51.445Z,48.20
2018-03-02T15:23:24.710Z,48.10
2018-03-02T15:25:55.578Z,47.60
2018-03-02T15:28:31.854Z,47.50
2018-03-02T15:31:01.799Z,47.20
2018-03-02T15:33:33.817Z,44.20
2018-03-02T15:36:02.018Z,43.60
2018-03-02T15:38:29.608Z,43.50
2018-03-02T15:40:57.234Z,42.30
2018-03-02T15:43:24.817Z,41.60
2018-03-02T15:45:52.432Z,40.90
2018-03-02T15:48:20.011Z,41.90
2018-03-02T15:50:47.618Z,42.60
2018-03-02T15:53:16.182Z,44.00
2018-03-02T15:55:43.775Z,45.40
2018-03-02T15:58:11.380Z,43.60
2018-03-02T16:00:38.968Z,42.20
2018-03-02T16:03:06.566Z,45.00
2018-03-02T16:05:34.152Z,46.50
2018-03-02T16:08:01.772Z,48.30
2018-03-02T16:10:30.143Z,48.90
2018-03-02T16:12:58.522Z,50.10
2018-03-02T16:15:26.915Z,50.10
2018-03-02T16:17:55.261Z,50.90
2018-03-02T16:20:22.888Z,50.90
2018-03-02T16:22:50.464Z,51.40
2018-03-02T16:25:18.055Z,51.70
2018-03-02T16:27:46.446Z,55.50
2018-03-02T16:30:14.042Z,55.50
2018-03-02T16:32:41.663Z,56.20
2018-03-02T16:35:10.011Z,58.40
2018-03-02T16:37:37.605Z,58.30
2018-03-02T16:40:05.980Z,59.40
2018-03-02T16:42:34.341Z,60.50
2018-03-02T16:45:01.986Z,60.40
2018-03-02T16:47:29.571Z,61.70
2018-03-02T16:49:57.961Z,62.30
2018-03-02T16:52:25.556Z,62.30
2018-03-02T16:54:53.153Z,62.30
2018-03-02T16:57:20.770Z,63.10
2018-03-02T16:59:48.378Z,63.40
2018-03-02T17:02:16.770Z,64.30
2018-03-02T17:04:45.126Z,64.60
2018-03-02T17:07:12.792Z,64.40
2018-03-02T17:09:40.411Z,64.60
2018-03-02T17:12:08.015Z,64.70
2018-03-02T17:14:36.426Z,65.80
2018-03-02T17:17:04.954Z,65.70
2018-03-02T17:19:32.966Z,66.20
2018-03-02T17:22:00.580Z,66.60
2018-03-02T17:24:28.163Z,67.10
2018-03-02T17:26:56.557Z,67.50
2018-03-02T17:29:24.911Z,67.80
2018-03-02T17:31:52.499Z,67.80
2018-03-02T17:34:20.899Z,68.30
2018-03-02T17:36:48.504Z,68.30
2018-03-02T17:39:16.159Z,68.50
2018-03-02T17:41:43.741Z,69.10
2018-03-02T17:44:12.124Z,69.50
2018-03-02T17:46:40.530Z,70.00
2018-03-02T17:49:08.122Z,70.00
2018-03-02T17:51:35.749Z,70.00
2018-03-02T17:54:03.550Z,70.20
2018-03-02T17:56:31.151Z,70.40
2018-03-02T17:58:59.523Z,70.60
2018-03-02T18:01:27.877Z,70.90
2018-03-02T18:03:55.502Z,70.80
2018-03-02T18:06:23.091Z,70.80
2018-03-02T18:08:51.483Z,71.30
2018-03-02T18:11:19.072Z,71.30
2018-03-02T18:13:46.706Z,71.70
2018-03-02T18:16:14.289Z,71.90
2018-03-02T18:18:42.675Z,72.20
2018-03-02T18:21:10.296Z,72.20
2018-03-02T18:23:37.918Z,72.50
2018-03-02T18:26:05.508Z,72.60
2018-03-02T18:28:33.142Z,72.80
2018-03-02T18:31:00.784Z,73.20
2018-03-02T18:33:28.419Z,73.30
2018-03-02T18:35:56.795Z,73.40
2018-03-02T18:38:25.193Z,73.80
2018-03-02T18:40:52.790Z,73.80
2018-03-02T18:43:20.430Z,73.70
2018-03-02T18:45:48.027Z,73.70
2018-03-02T18:48:15.674Z,74.00
2018-03-02T18:50:43.283Z,74.40
2018-03-02T18:53:11.636Z,75.10
2018-03-02T18:55:39.244Z,75.10
2018-03-02T18:58:06.824Z,75.10
2018-03-02T19:00:34.410Z,75.00
2018-03-02T19:03:02.157Z,75.80
2018-03-02T19:05:29.747Z,75.60
2018-03-02T19:07:57.361Z,75.80
2018-03-02T19:10:24.959Z,76.40
2018-03-02T19:12:52.553Z,75.70
2018-03-02T19:15:20.172Z,76.00
2018-03-02T19:17:47.785Z,76.60
2018-03-02T19:20:15.371Z,76.30
2018-03-02T19:22:42.998Z,76.60
2018-03-02T19:25:10.584Z,76.60
2018-03-02T19:27:38.215Z,77.10
2018-03-02T19:30:06.240Z,77.50
2018-03-02T19:32:33.816Z,77.50
2018-03-02T19:35:01.518Z,77.80
2018-03-02T19:37:29.518Z,77.80
2018-03-02T19:39:57.164Z,77.80
2018-03-02T19:42:25.378Z,78.00
2018-03-02T19:44:53.023Z,77.80
2018-03-02T19:47:20.860Z,78.00
2018-03-02T19:49:48.451Z,78.00
2018-03-02T19:52:16.432Z,78.40
2018-03-02T19:54:45.395Z,78.40
2018-03-02T19:57:14.417Z,78.70
2018-03-02T19:59:42.412Z,78.60
2018-03-02T20:02:10.082Z,78.60
2018-03-02T20:04:37.744Z,78.60
2018-03-02T20:07:05.327Z,79.30
2018-03-02T20:09:32.960Z,79.40
2018-03-02T20:12:00.566Z,79.30
2018-03-02T20:14:29.189Z,79.80
2018-03-02T20:16:57.611Z,79.50
2018-03-02T20:19:25.184Z,79.50
2018-03-02T20:21:53.419Z,79.70
2018-03-02T20:24:21.942Z,80.00
2018-03-02T20:29:34.552Z,80.30
2018-03-02T20:32:03.005Z,80.50
2018-03-02T20:34:31.477Z,80.60
2018-03-02T20:36:59.186Z,80.60
2018-03-02T20:39:27.613Z,80.40
2018-03-02T20:41:55.269Z,80.40
2018-03-02T20:44:23.324Z,80.80
2018-03-02T20:46:51.153Z,80.80
2018-03-02T20:49:19.882Z,81.40
2018-03-02T20:51:47.569Z,81.40
2018-03-02T20:54:15.195Z,81.50
2018-03-02T20:56:43.212Z,81.50
2018-03-02T20:59:11.373Z,81.30
2018-03-02T21:01:39.897Z,81.70
2018-03-02T21:04:07.551Z,81.60
2018-03-02T21:06:35.160Z,82.80
2018-03-02T21:09:03.580Z,82.30
2018-03-02T21:11:31.633Z,82.30
2018-03-02T21:13:59.604Z,82.50
2018-03-02T21:16:27.327Z,82.30
2018-03-02T21:18:55.036Z,82.70
2018-03-02T21:21:22.763Z,82.40
2018-03-02T21:23:51.579Z,83.10
2018-03-02T21:26:19.676Z,83.00
2018-03-02T21:28:47.371Z,83.60
2018-03-02T21:31:15.752Z,83.60
2018-03-02T21:33:44.369Z,83.60
2018-03-02T21:36:13.075Z,83.70
2018-03-02T21:38:40.756Z,83.70
2018-03-02T21:41:08.356Z,83.90
2018-03-02T21:43:37.378Z,83.80
2018-03-02T21:46:06.093Z,83.60
2018-03-02T21:48:34.005Z,83.70
2018-03-02T21:51:01.748Z,84.20
2018-03-02T21:53:29.612Z,84.20
2018-03-02T21:55:57.561Z,83.80
2018-03-02T21:58:25.578Z,83.80
2018-03-02T22:00:53.411Z,84.80
2018-03-02T22:03:21.874Z,85.70
2018-03-02T22:05:49.537Z,85.60
2018-03-02T22:08:18.007Z,85.40
2018-03-02T22:10:45.841Z,85.40
2018-03-02T22:13:14.542Z,85.20
2018-03-02T22:15:42.328Z,85.20
2018-03-02T22:18:09.990Z,85.70
2018-03-02T22:20:37.638Z,86.00
2018-03-02T22:23:05.590Z,86.20
2018-03-02T22:25:33.426Z,86.00
2018-03-02T22:28:01.129Z,85.90
2018-03-02T22:30:29.072Z,86.80
2018-03-02T22:32:56.704Z,86.60
2018-03-02T22:35:24.338Z,87.00
2018-03-02T22:37:52.749Z,87.30
2018-03-02T22:40:20.393Z,87.30
2018-03-02T22:42:48.045Z,87.10
2018-03-02T22:45:15.704Z,86.80
2018-03-02T22:47:44.085Z,86.50
2018-03-02T22:50:12.506Z,87.00
2018-03-02T22:52:40.929Z,87.50
2018-03-02T22:55:08.541Z,87.50
2018-03-02T22:57:36.170Z,87.50
2018-03-02T23:00:03.772Z,88.10
2018-03-02T23:02:32.168Z,88.20
2018-03-02T23:05:00.588Z,87.90
2018-03-02T23:07:28.428Z,87.90
2018-03-02T23:09:56.099Z,88.00
2018-03-02T23:12:23.745Z,87.70
2018-03-02T23:14:52.168Z,89.10
2018-03-02T23:17:19.838Z,88.90
2018-03-02T23:19:47.453Z,88.60
2018-03-02T23:22:16.120Z,88.90
2018-03-02T23:24:43.742Z,89.10
2018-03-02T23:27:11.733Z,89.20
2018-03-02T23:29:39.356Z,89.40
2018-03-02T23:32:06.952Z,89.30
2018-03-02T23:34:34.605Z,90.00
2018-03-02T23:37:02.220Z,89.90
2018-03-02T23:39:29.881Z,90.10
2018-03-02T23:41:57.508Z,90.10
2018-03-02T23:44:25.110Z,90.00
2018-03-02T23:46:52.800Z,90.00
2018-03-02T23:49:21.223Z,90.00
2018-03-02T23:51:48.867Z,90.00
2018-03-02T23:54:16.467Z,90.10
2018-03-02T23:56:44.927Z,90.40
2018-03-02T23:59:12.573Z,90.40
